Terminal Aerodrome Forecast
Issued by NWS Dodge City, KS

Home | Current Version | Previous Version | Graphics & Text | Print | Product List | Glossary Off
Versions: 1 2 3 4 5 6 7 8 9 10 11 12 13 14 15 16 17 18 19

000
FTUS43 KDDC 142328
TAFDDC
TAF
KDDC 142328Z 1500/1524 16009KT P6SM SCT250
     FM150200 11007KT P6SM BKN200
     FM150500 36008KT 4SM BR BKN100
     FM150900 35015G23KT P6SM SCT250
     FM152100 36007KT P6SM SKC=

USA.gov is the U.S. government's official web portal to all federal, state and local government web resources and services.